Atlantic Mine, Michigan
Current Conditions -  °F | °C
As of 6:53 AM on Tuesday 27 Jan 2015 (Local Time) from KCMX Reporting Station
Clear Clear  
Wind Chill: 15°   Ceiling: Unl
Heat Index: 15°   Visibility: 10mi
Dew Point: 11°   Wind: 3mph
Humidity: 84%   Direction: 190°S
Pressure: 30.09"   Gusts: NA
Location:  47.1°N, 88.63°W
Report Text: KCMX 271153Z AUTO 19003KT 10SM CLR M09/M12 A3009 RMK AO2 SLP209 70005 I1000 I6000 T10941117 11061 21094 51010
Loading
Personal Weather Stations






























Interactive Weather Map New forecast layout! Learn more

10-Day Weather Forecast

Advertisements
Track Severe Weather on mobile